Time;durP1;ratioP1;P1;durP2;ratioP2;P2;SDS_P1;SDS_P2;PMS_P1;PMS_P2;Temp;Humidity;BMP_temperature;BMP_pressure;BME280_temperature;BME280_humidity;BME280_pressure;Samples;Min_cycle;Max_cycle;Signal;HPM_P1;HPM_P2
2023/07/14 00:00:28;;;;;;;2.70;2.50;;;;;;;17.88;58.98;101577.53;4969681;28;97160;-43
2023/07/14 00:02:54;;;;;;;1.80;1.70;;;;;;;17.85;59.13;101576.53;4970736;28;97501;-43
2023/07/14 00:05:26;;;;;;;2.00;1.87;;;;;;;17.86;59.23;101580.84;4972525;28;96776;-44
2023/07/14 00:07:54;;;;;;;2.17;2.07;;;;;;;17.87;59.23;101576.03;4973743;28;98327;-43
2023/07/14 00:10:31;;;;;;;2.47;2.27;;;;;;;17.86;59.72;101580.09;4970174;28;97787;-44
2023/07/14 00:13:03;;;;;;;2.17;2.07;;;;;;;17.82;59.32;101574.06;4970126;28;97344;-43
2023/07/14 00:15:30;;;;;;;2.30;2.20;;;;;;;17.80;59.27;101576.59;4971237;28;96755;-49
2023/07/14 00:18:00;;;;;;;2.37;2.07;;;;;;;17.79;59.42;101575.84;4970268;28;97809;-45
2023/07/14 00:20:29;;;;;;;2.27;2.07;;;;;;;17.80;59.41;101571.03;4970191;28;97445;-43
2023/07/14 00:22:56;;;;;;;2.17;1.97;;;;;;;17.80;59.45;101568.25;4970980;28;97080;-44
2023/07/14 00:25:23;;;;;;;2.27;2.03;;;;;;;17.76;59.32;101574.09;4970038;28;97078;-43
2023/07/14 00:27:54;;;;;;;2.03;1.90;;;;;;;17.75;59.64;101569.81;4969882;28;97461;-42
2023/07/14 00:30:23;;;;;;;2.33;2.13;;;;;;;17.75;59.50;101569.81;4974175;28;97545;-44
2023/07/14 00:32:51;;;;;;;1.60;1.50;;;;;;;17.71;59.51;101569.31;4970739;28;97200;-46
2023/07/14 00:35:25;;;;;;;2.10;2.00;;;;;;;17.67;59.89;101568.84;4969425;28;97316;-45
2023/07/14 00:37:53;;;;;;;1.77;1.67;;;;;;;17.66;59.73;101569.38;4969799;28;99082;-44
2023/07/14 00:40:32;;;;;;;2.17;2.07;;;;;;;17.64;59.65;101566.38;4969128;28;97189;-44
2023/07/14 00:42:58;;;;;;;7.20;2.70;;;;;;;17.62;59.58;101563.34;4975849;28;97111;-43
2023/07/14 00:45:26;;;;;;;4.77;2.20;;;;;;;17.61;59.74;101561.84;4975247;28;97287;-43
2023/07/14 00:48:03;;;;;;;2.30;2.20;;;;;;;17.62;59.85;101566.91;4972483;28;97422;-44
2023/07/14 00:50:41;;;;;;;2.40;2.30;;;;;;;17.59;59.97;101567.16;4972153;28;97600;-44
2023/07/14 00:53:14;;;;;;;2.17;2.07;;;;;;;17.56;59.60;101566.16;4973086;28;97386;-46
2023/07/14 00:55:46;;;;;;;2.10;2.00;;;;;;;17.48;59.70;101567.22;4973360;28;97607;-44
2023/07/14 00:58:30;;;;;;;2.80;2.60;;;;;;;17.34;60.41;101568.38;4969418;28;97462;-44
2023/07/14 01:01:10;;;;;;;2.10;2.00;;;;;;;17.27;60.01;101564.13;4972541;28;97226;-43
2023/07/14 01:03:45;;;;;;;5.70;2.47;;;;;;;17.24;59.69;101563.13;4975083;28;97241;-45
2023/07/14 01:06:12;;;;;;;1.93;1.83;;;;;;;17.25;59.72;101552.75;4973074;28;97329;-46
2023/07/14 01:08:46;;;;;;;2.77;2.57;;;;;;;17.25;59.99;101549.97;4970871;28;96777;-45
2023/07/14 01:11:13;;;;;;;2.20;2.07;;;;;;;17.23;59.84;101547.69;4970793;28;97343;-46
2023/07/14 01:13:38;;;;;;;2.27;2.17;;;;;;;17.22;59.88;101551.00;4969500;28;96669;-44
2023/07/14 01:16:04;;;;;;;2.57;2.37;;;;;;;17.19;59.92;101555.56;4972207;28;97850;-47
2023/07/14 01:18:29;;;;;;;2.03;1.93;;;;;;;17.20;59.85;101547.97;4971376;28;97305;-43
2023/07/14 01:20:55;;;;;;;2.30;2.13;;;;;;;17.19;59.82;101552.00;4972469;28;97661;-45
2023/07/14 01:23:37;;;;;;;2.50;2.30;;;;;;;17.11;60.33;101543.50;4970685;28;97131;-45
2023/07/14 01:26:25;;;;;;;2.07;1.97;;;;;;;17.10;60.57;101544.00;4970661;28;97098;-45
2023/07/14 01:28:51;;;;;;;3.03;2.67;;;;;;;17.10;59.90;101546.78;4971239;28;97491;-43
2023/07/14 01:31:20;;;;;;;2.50;2.30;;;;;;;17.07;60.00;101540.22;4972732;28;97506;-44
2023/07/14 01:33:46;;;;;;;3.23;2.90;;;;;;;17.07;59.93;101543.00;4973030;28;97218;-44
2023/07/14 01:36:11;;;;;;;3.00;2.80;;;;;;;17.06;60.03;101535.16;4969819;28;96533;-44
2023/07/14 01:38:38;;;;;;;2.87;2.67;;;;;;;17.02;60.03;101531.91;4971048;28;97858;-44
2023/07/14 01:41:05;;;;;;;2.83;2.63;;;;;;;17.02;60.25;101540.25;4973444;28;97160;-44
2023/07/14 01:43:31;;;;;;;2.90;2.53;;;;;;;17.05;60.10;101544.78;4969583;28;96825;-44
2023/07/14 01:46:02;;;;;;;2.70;2.50;;;;;;;17.04;60.12;101540.50;4971221;28;97297;-44
2023/07/14 01:48:39;;;;;;;3.50;3.20;;;;;;;16.96;60.31;101551.44;4973172;28;97216;-43
2023/07/14 01:51:11;;;;;;;4.17;2.60;;;;;;;16.99;60.00;101532.97;4971192;28;97531;-44
2023/07/14 01:53:48;;;;;;;3.13;2.87;;;;;;;16.93;60.21;101538.53;4970621;28;97591;-44
2023/07/14 01:56:18;;;;;;;3.53;3.00;;;;;;;16.92;60.06;101544.63;4971396;28;97060;-44
2023/07/14 01:58:59;;;;;;;2.97;2.77;;;;;;;16.91;60.49;101541.09;4971912;28;96712;-44
2023/07/14 02:01:26;;;;;;;3.20;3.00;;;;;;;16.88;60.10;101533.03;4976248;28;97395;-44
2023/07/14 02:03:54;;;;;;;2.83;2.63;;;;;;;16.88;60.02;101541.38;4973739;28;97279;-44
2023/07/14 02:06:20;;;;;;;4.30;3.30;;;;;;;16.85;59.78;101536.81;4968880;28;97200;-44
2023/07/14 02:08:46;;;;;;;3.53;3.23;;;;;;;16.80;60.00;101537.59;4968153;28;97965;-44
2023/07/14 02:11:20;;;;;;;3.00;2.80;;;;;;;16.77;60.51;101538.66;4971027;28;97100;-44
2023/07/14 02:13:46;;;;;;;2.87;2.70;;;;;;;16.76;60.34;101542.69;4973902;28;97090;-44
2023/07/14 02:16:14;;;;;;;3.40;3.20;;;;;;;16.76;60.14;101540.66;4970751;28;97019;-44
2023/07/14 02:18:42;;;;;;;3.17;2.80;;;;;;;16.76;60.19;101542.69;4972285;28;97395;-43
2023/07/14 02:21:10;;;;;;;3.30;3.00;;;;;;;16.74;60.13;101542.44;4973501;28;98730;-44
2023/07/14 02:23:38;;;;;;;2.87;2.73;;;;;;;16.70;60.19;101544.75;4969639;28;97294;-44
2023/07/14 02:26:07;;;;;;;2.80;2.60;;;;;;;16.66;60.26;101541.50;4971404;28;97431;-44
2023/07/14 02:28:33;;;;;;;2.97;2.67;;;;;;;16.65;60.32;101549.06;4971028;28;97699;-44
2023/07/14 02:31:38;;;;;;;2.77;2.57;;;;;;;16.62;60.71;101544.53;4972834;28;97594;-44
2023/07/14 02:34:04;;;;;;;3.30;2.70;;;;;;;16.61;60.07;101540.25;4975271;28;97598;-44
2023/07/14 02:36:43;;;;;;;2.87;2.60;;;;;;;16.59;60.37;101542.78;4972395;28;97636;-43
2023/07/14 02:39:09;;;;;;;2.73;2.53;;;;;;;16.54;60.02;101548.34;4970467;28;97573;-44
2023/07/14 02:41:42;;;;;;;2.93;2.67;;;;;;;16.54;60.48;101548.34;4969918;28;97596;-44
2023/07/14 02:44:11;;;;;;;5.90;2.57;;;;;;;16.51;60.33;101552.94;4972187;28;97151;-43
2023/07/14 02:46:46;;;;;;;2.70;2.50;;;;;;;16.51;60.28;101543.84;4973878;28;96770;-44
2023/07/14 02:49:12;;;;;;;3.00;2.80;;;;;;;16.46;60.23;101551.66;4971238;28;97395;-44
2023/07/14 02:51:37;;;;;;;2.43;2.30;;;;;;;16.44;60.38;101554.19;4972130;28;97306;-44
2023/07/14 02:54:06;;;;;;;2.70;2.50;;;;;;;16.46;60.35;101554.44;4968799;28;96922;-43
2023/07/14 02:56:32;;;;;;;2.70;2.50;;;;;;;16.48;60.38;101551.13;4972275;28;96634;-44
2023/07/14 02:58:58;;;;;;;4.80;3.03;;;;;;;16.49;60.36;101550.63;4970624;28;97131;-44
2023/07/14 03:01:23;;;;;;;2.40;2.30;;;;;;;16.48;60.28;101551.91;4970722;28;97381;-44
2023/07/14 03:03:49;;;;;;;2.77;2.57;;;;;;;16.46;60.29;101542.56;4971947;28;97364;-44
2023/07/14 03:06:17;;;;;;;3.33;3.00;;;;;;;16.44;60.20;101554.19;4971350;28;97335;-44
2023/07/14 03:08:43;;;;;;;2.70;2.50;;;;;;;16.40;60.29;101559.22;4967240;28;97439;-44
2023/07/14 03:11:09;;;;;;;2.57;2.40;;;;;;;16.39;60.37;101559.75;4972377;28;99324;-43
2023/07/14 03:13:37;;;;;;;3.20;3.00;;;;;;;16.38;60.34;101550.66;4972414;28;97096;-44
2023/07/14 03:16:03;;;;;;;3.00;2.80;;;;;;;16.38;60.24;101536.78;4968119;28;97314;-44
2023/07/14 03:18:30;;;;;;;2.80;2.60;;;;;;;16.35;60.37;101548.91;4968738;28;99218;-44
2023/07/14 03:20:57;;;;;;;3.10;2.90;;;;;;;16.34;60.26;101541.09;4971558;28;97088;-44
2023/07/14 03:23:22;;;;;;;3.53;3.17;;;;;;;16.35;60.10;101537.06;4967784;28;97251;-43
2023/07/14 03:25:57;;;;;;;2.83;2.63;;;;;;;16.33;60.27;101543.13;4969064;28;97096;-44
2023/07/14 03:28:23;;;;;;;3.07;2.83;;;;;;;16.31;60.10;101540.09;4968803;28;97062;-44
2023/07/14 03:30:48;;;;;;;2.90;2.40;;;;;;;16.30;60.23;101540.59;4972877;28;97069;-44
2023/07/14 03:33:13;;;;;;;2.70;2.50;;;;;;;16.28;60.25;101541.13;4969056;28;97132;-44
2023/07/14 03:35:39;;;;;;;4.40;3.53;;;;;;;16.25;60.36;101542.13;4969666;28;96884;-44
2023/07/14 03:38:04;;;;;;;3.30;2.90;;;;;;;16.23;60.35;101539.09;4972945;28;97282;-44
2023/07/14 03:40:30;;;;;;;2.87;2.67;;;;;;;16.21;60.25;101538.09;4970452;28;97787;-44
2023/07/14 03:42:56;;;;;;;3.20;3.00;;;;;;;16.23;60.18;101538.34;4970191;28;97163;-44
2023/07/14 03:45:22;;;;;;;3.43;3.13;;;;;;;16.21;60.22;101541.63;4971086;28;97342;-44
2023/07/14 03:47:47;;;;;;;2.70;2.60;;;;;;;16.20;60.10;101537.38;4969835;28;96988;-44
2023/07/14 03:50:13;;;;;;;2.50;2.30;;;;;;;16.20;60.28;101534.59;4970123;28;97907;-44
2023/07/14 03:52:38;;;;;;;2.40;2.20;;;;;;;16.16;60.30;101534.06;4969824;28;97081;-44
2023/07/14 03:55:04;;;;;;;3.23;3.03;;;;;;;16.15;60.57;101538.13;4969334;28;97597;-43
2023/07/14 03:57:29;;;;;;;3.53;2.73;;;;;;;16.18;60.57;101539.13;4966338;28;97254;-44
2023/07/14 03:59:55;;;;;;;3.17;2.83;;;;;;;16.19;60.46;101530.28;4969017;28;109398;-44
2023/07/14 04:02:20;;;;;;;2.60;2.50;;;;;;;16.22;60.28;101528.50;4970377;28;97319;-44
2023/07/14 04:04:45;;;;;;;3.33;3.10;;;;;;;16.22;60.36;101531.28;4970600;28;97002;-44
2023/07/14 04:07:11;;;;;;;3.77;3.50;;;;;;;16.21;60.19;101527.75;4965704;28;97322;-44
2023/07/14 04:09:36;;;;;;;2.97;2.77;;;;;;;16.21;60.34;101527.75;4969153;28;97362;-43
2023/07/14 04:12:02;;;;;;;3.70;3.40;;;;;;;16.19;60.40;101527.50;4967476;28;97504;-44
2023/07/14 04:14:27;;;;;;;4.03;3.50;;;;;;;16.20;60.41;101526.25;4967920;28;97574;-44
2023/07/14 04:16:52;;;;;;;3.80;3.17;;;;;;;16.19;60.40;101533.06;4968516;28;113913;-44
2023/07/14 04:19:17;;;;;;;3.63;3.10;;;;;;;16.20;60.52;101529.03;4969257;28;97201;-44
2023/07/14 04:21:43;;;;;;;3.33;3.03;;;;;;;16.23;60.28;101533.56;4971535;28;97048;-44
2023/07/14 04:24:08;;;;;;;3.70;3.40;;;;;;;16.27;60.28;101536.06;4969664;28;97606;-43
2023/07/14 04:26:33;;;;;;;3.43;3.13;;;;;;;16.26;60.31;101529.75;4967882;28;97376;-44
2023/07/14 04:28:59;;;;;;;5.50;3.40;;;;;;;16.26;60.30;101535.31;4969078;28;105147;-44
2023/07/14 04:31:24;;;;;;;3.90;3.50;;;;;;;16.25;60.30;101533.06;4968023;28;98026;-44
2023/07/14 04:33:51;;;;;;;3.47;3.20;;;;;;;16.27;60.38;101538.84;4971266;28;97523;-44
2023/07/14 04:36:17;;;;;;;2.83;2.73;;;;;;;16.27;60.43;101542.38;4968866;28;98806;-44
2023/07/14 04:38:59;;;;;;;5.77;3.40;;;;;;;16.27;60.52;101542.38;4972192;28;97760;-43
2023/07/14 04:41:24;;;;;;;3.90;2.73;;;;;;;16.28;60.47;101543.13;4971941;28;97088;-44
2023/07/14 04:43:49;;;;;;;3.13;2.93;;;;;;;16.28;60.50;101543.13;4972912;28;97391;-44
2023/07/14 04:46:15;;;;;;;3.47;2.90;;;;;;;16.27;60.88;101542.38;4973376;28;112027;-44
2023/07/14 04:48:40;;;;;;;3.03;2.83;;;;;;;16.27;60.91;101534.03;4972045;28;97015;-44
2023/07/14 04:51:06;;;;;;;2.77;2.57;;;;;;;16.32;60.57;101538.81;4971712;28;97216;-43
2023/07/14 04:53:31;;;;;;;3.20;2.97;;;;;;;16.36;60.52;101539.31;4975683;28;96697;-44
2023/07/14 04:55:56;;;;;;;2.97;2.77;;;;;;;16.35;60.42;101537.06;4973926;28;111565;-44
2023/07/14 04:58:21;;;;;;;2.70;2.57;;;;;;;16.35;60.57;101542.59;4972417;28;105821;-44
2023/07/14 05:00:48;;;;;;;3.10;2.80;;;;;;;16.35;60.84;101542.59;4973035;28;97100;-44
2023/07/14 05:03:15;;;;;;;3.03;2.83;;;;;;;16.37;60.97;101543.59;4970175;28;97239;-44
2023/07/14 05:05:41;;;;;;;3.00;2.80;;;;;;;16.43;61.06;101547.13;4973101;28;97729;-44
2023/07/14 05:08:07;;;;;;;2.90;2.70;;;;;;;16.48;61.03;101551.13;4972484;28;108106;-43
2023/07/14 05:10:34;;;;;;;2.93;2.73;;;;;;;16.56;61.14;101551.38;4972994;28;96765;-44
2023/07/14 05:13:00;;;;;;;2.97;2.73;;;;;;;16.63;61.18;101548.06;4970470;28;97339;-44
2023/07/14 05:15:26;;;;;;;3.53;2.40;;;;;;;16.68;61.14;101548.03;4975548;28;97301;-43
2023/07/14 05:17:52;;;;;;;3.90;3.60;;;;;;;16.73;61.18;101544.47;4972985;28;97385;-44
2023/07/14 05:20:19;;;;;;;4.20;3.30;;;;;;;16.82;61.31;101546.94;4972607;28;97066;-44
2023/07/14 05:22:47;;;;;;;3.50;3.07;;;;;;;16.91;61.28;101541.09;4970265;28;97041;-44
2023/07/14 05:25:14;;;;;;;2.73;2.50;;;;;;;16.98;61.26;101542.56;4973135;28;97364;-44
2023/07/14 05:27:43;;;;;;;3.23;3.03;;;;;;;17.02;61.19;101537.47;4972395;28;97654;-43
2023/07/14 05:30:09;;;;;;;3.20;3.00;;;;;;;17.09;61.20;101546.03;4975411;28;96971;-43
2023/07/14 05:32:35;;;;;;;2.90;2.70;;;;;;;17.14;61.30;101544.47;4973996;28;96823;-43
2023/07/14 05:35:00;;;;;;;2.87;2.67;;;;;;;17.19;61.22;101549.22;4972514;28;97349;-44
2023/07/14 05:37:26;;;;;;;2.90;2.70;;;;;;;17.25;61.37;101555.53;4972018;28;97129;-44
2023/07/14 05:39:51;;;;;;;3.40;3.20;;;;;;;17.31;61.52;101552.69;4971866;28;97146;-44
2023/07/14 05:42:17;;;;;;;6.93;2.90;;;;;;;17.39;61.40;101550.84;4974349;28;97386;-44
2023/07/14 05:44:42;;;;;;;2.43;2.30;;;;;;;17.44;61.57;101550.81;4973208;28;97161;-44
2023/07/14 05:47:08;;;;;;;2.53;2.33;;;;;;;17.51;61.55;101547.50;4971858;28;99692;-43
2023/07/14 05:49:34;;;;;;;2.87;2.67;;;;;;;17.60;61.55;101552.75;4971531;28;97032;-44
2023/07/14 05:51:59;;;;;;;2.90;2.70;;;;;;;17.70;61.57;101550.38;4972618;28;97165;-44
2023/07/14 05:54:25;;;;;;;2.37;2.20;;;;;;;17.78;61.41;101545.72;4972060;28;97618;-44
2023/07/14 05:56:51;;;;;;;2.77;2.57;;;;;;;17.87;61.49;101546.16;4970028;28;96909;-44
2023/07/14 05:59:17;;;;;;;2.53;2.33;;;;;;;17.95;61.53;101546.34;4973309;28;97288;-44
2023/07/14 06:01:42;;;;;;;4.27;2.77;;;;;;;18.07;61.68;101541.38;4974529;28;96649;-44
2023/07/14 06:04:08;;;;;;;3.10;2.90;;;;;;;18.16;61.79;101544.59;4970551;28;97124;-43
2023/07/14 06:06:33;;;;;;;4.30;4.00;;;;;;;18.28;61.84;101562.66;4972031;28;97734;-44
2023/07/14 06:09:00;;;;;;;5.80;5.07;;;;;;;18.44;61.85;101549.81;4970743;28;97099;-44
2023/07/14 06:11:27;;;;;;;4.90;4.50;;;;;;;18.57;61.60;101541.56;4971588;28;97049;-44
2023/07/14 06:13:52;;;;;;;4.63;4.20;;;;;;;18.73;61.64;101537.06;4970495;28;100172;-44
2023/07/14 06:16:20;;;;;;;3.80;3.50;;;;;;;18.84;61.60;101543.25;4970502;28;97172;-44
2023/07/14 06:18:46;;;;;;;4.23;3.87;;;;;;;18.96;61.79;101539.00;4975529;28;97004;-44
2023/07/14 06:21:12;;;;;;;4.80;4.30;;;;;;;19.06;61.56;101542.16;4973085;28;97241;-44
2023/07/14 06:23:37;;;;;;;4.30;4.00;;;;;;;19.13;61.34;101542.28;4973559;28;97087;-44
2023/07/14 06:26:02;;;;;;;4.53;4.13;;;;;;;19.21;61.64;101528.50;4972238;28;100015;-44
2023/07/14 06:28:28;;;;;;;4.00;3.70;;;;;;;19.31;61.64;101532.38;4969583;28;97595;-44
2023/07/14 06:30:58;;;;;;;4.40;4.00;;;;;;;19.44;61.78;101524.81;4969096;28;97029;-44
2023/07/14 06:33:24;;;;;;;4.80;4.23;;;;;;;19.55;61.64;101526.66;4973576;28;98042;-44
2023/07/14 06:35:51;;;;;;;4.63;3.97;;;;;;;19.66;61.61;101520.16;4972890;28;97266;-44
2023/07/14 06:38:16;;;;;;;4.53;3.97;;;;;;;19.75;61.70;101520.47;4968886;28;97092;-44
2023/07/14 06:40:41;;;;;;;4.23;3.87;;;;;;;19.83;61.60;101515.03;4976932;28;96818;-44
2023/07/14 06:43:09;;;;;;;5.23;4.63;;;;;;;19.92;61.63;101514.59;4958599;28;98841;-44
2023/07/14 06:45:35;;;;;;;4.47;4.07;;;;;;;20.03;61.25;101514.34;4970127;28;97109;-44
2023/07/14 06:48:01;;;;;;;5.33;4.23;;;;;;;20.12;61.04;101516.72;4971519;28;97124;-44
2023/07/14 06:50:26;;;;;;;4.83;4.33;;;;;;;20.20;61.01;101514.81;4970875;28;97213;-44
2023/07/14 06:52:52;;;;;;;7.97;4.13;;;;;;;20.28;60.91;101512.13;4971626;28;97885;-44
2023/07/14 06:55:18;;;;;;;5.00;3.50;;;;;;;20.34;60.95;101513.50;4973520;28;97096;-44
2023/07/14 06:57:44;;;;;;;11.13;3.50;;;;;;;20.41;61.02;101517.69;4970292;28;97069;-44
2023/07/14 07:00:12;;;;;;;4.17;3.77;;;;;;;20.44;60.81;101520.19;4972175;28;97492;-44
2023/07/14 07:02:41;;;;;;;5.20;4.70;;;;;;;20.51;60.36;101516.69;4969344;28;97896;-44
2023/07/14 07:05:07;;;;;;;4.97;4.10;;;;;;;20.56;60.24;101515.84;4968248;28;97260;-44
2023/07/14 07:07:33;;;;;;;7.20;4.30;;;;;;;20.65;60.24;101515.38;4969389;28;96994;-44
2023/07/14 07:09:59;;;;;;;3.53;3.23;;;;;;;20.75;60.04;101512.91;4967242;28;96930;-44
2023/07/14 07:12:24;;;;;;;3.90;3.50;;;;;;;20.82;60.13;101521.34;4969059;28;97857;-44
2023/07/14 07:14:50;;;;;;;4.50;4.00;;;;;;;20.88;60.01;101510.78;4969270;28;109362;-44
2023/07/14 07:17:15;;;;;;;4.50;4.10;;;;;;;20.94;59.79;101516.25;4972981;28;99206;-44
2023/07/14 07:19:41;;;;;;;3.60;3.30;;;;;;;21.02;59.85;101517.09;4968621;28;97004;-44
2023/07/14 07:22:07;;;;;;;4.60;4.20;;;;;;;21.09;59.66;101515.69;4965725;28;106730;-44
2023/07/14 07:24:33;;;;;;;5.20;4.03;;;;;;;21.19;59.58;101508.31;4969988;28;97202;-44
2023/07/14 07:26:59;;;;;;;3.70;3.40;;;;;;;21.32;59.19;101508.22;4970118;28;97751;-44
2023/07/14 07:29:24;;;;;;;4.83;4.10;;;;;;;21.41;59.04;101508.50;4967586;28;97263;-44
2023/07/14 07:31:50;;;;;;;11.63;4.37;;;;;;;21.47;58.72;101509.13;4971638;28;97178;-44
2023/07/14 07:34:15;;;;;;;3.80;3.30;;;;;;;21.51;58.90;101505.97;4965345;27;98406;-47
2023/07/14 07:36:41;;;;;;;5.90;3.80;;;;;;;21.56;58.69;101511.44;4944046;27;99826;-45
2023/07/14 07:39:06;;;;;;;5.50;4.30;;;;;;;21.59;58.57;101503.97;4943085;28;97273;-44
2023/07/14 07:41:31;;;;;;;3.87;3.50;;;;;;;21.67;58.63;101505.53;4562202;28;10000278;-44
2023/07/14 07:43:57;;;;;;;4.83;4.17;;;;;;;21.74;58.71;101504.09;4960841;28;97123;-44
2023/07/14 07:46:22;;;;;;;3.73;3.43;;;;;;;21.83;58.42;101502.88;4959131;28;97134;-44
2023/07/14 07:48:48;;;;;;;3.80;3.40;;;;;;;21.93;58.21;101501.06;4959260;28;97414;-45
2023/07/14 07:51:14;;;;;;;6.03;3.97;;;;;;;22.04;57.98;101498.69;4959820;28;97056;-44
2023/07/14 07:53:40;;;;;;;4.33;3.93;;;;;;;22.10;57.87;101496.50;4959646;28;97312;-44
2023/07/14 07:56:05;;;;;;;5.23;3.60;;;;;;;22.15;57.58;101495.56;4959350;28;97138;-44
2023/07/14 07:58:31;;;;;;;5.27;3.37;;;;;;;22.21;57.54;101490.53;4960785;28;97573;-49
2023/07/14 08:01:02;;;;;;;4.10;2.87;;;;;;;22.29;57.05;101499.75;4958571;28;96959;-44
2023/07/14 08:03:29;;;;;;;3.83;3.47;;;;;;;22.35;57.30;101489.13;4959425;28;98632;-44
2023/07/14 08:06:02;;;;;;;3.53;3.00;;;;;;;22.46;57.28;101479.63;4959985;28;97017;-44
2023/07/14 08:08:28;;;;;;;4.80;2.90;;;;;;;22.55;57.35;101489.56;4961808;28;97571;-45
2023/07/14 08:10:54;;;;;;;5.03;3.10;;;;;;;22.64;57.13;101486.25;4958587;28;97305;-44
2023/07/14 08:13:19;;;;;;;3.80;3.20;;;;;;;22.70;57.00;101489.63;4962175;28;97104;-44
2023/07/14 08:15:45;;;;;;;3.40;2.80;;;;;;;22.75;56.49;101480.31;4964297;28;98023;-44
2023/07/14 08:18:10;;;;;;;6.00;3.23;;;;;;;22.76;56.31;101479.72;4963184;28;98684;-44
2023/07/14 08:20:37;;;;;;;3.40;2.73;;;;;;;22.82;56.46;101476.78;4965106;28;97213;-44
2023/07/14 08:23:11;;;;;;;6.07;3.17;;;;;;;22.88;55.72;101474.53;4961608;28;96867;-44
2023/07/14 08:25:37;;;;;;;3.67;2.87;;;;;;;22.98;55.98;101479.03;4963974;28;99040;-44
2023/07/14 08:28:04;;;;;;;3.40;3.10;;;;;;;23.05;55.78;101474.72;4963420;28;97140;-44
2023/07/14 08:30:30;;;;;;;4.03;3.03;;;;;;;23.03;55.33;101480.91;4964199;28;97327;-44
2023/07/14 08:32:56;;;;;;;3.70;2.67;;;;;;;23.13;55.28;101475.47;4964064;28;97564;-43
2023/07/14 08:35:22;;;;;;;2.70;2.50;;;;;;;23.24;55.07;101480.00;4961481;28;97553;-44
2023/07/14 08:37:47;;;;;;;7.67;2.60;;;;;;;23.36;54.72;101481.88;4962419;28;97171;-44
2023/07/14 08:40:15;;;;;;;2.70;2.23;;;;;;;23.44;54.77;101471.38;4963451;28;97061;-44
2023/07/14 08:43:05;;;;;;;2.47;2.00;;;;;;;23.54;54.32;101475.13;4965136;28;97405;-44
2023/07/14 08:45:41;;;;;;;2.83;1.93;;;;;;;23.61;53.12;101471.53;4965131;28;97358;-44
2023/07/14 08:48:25;;;;;;;3.10;1.90;;;;;;;23.68;50.96;101475.66;4962826;28;97216;-44
2023/07/14 08:50:56;;;;;;;1.63;1.53;;;;;;;23.75;53.10;101472.84;4964300;28;97141;-44
2023/07/14 08:53:26;;;;;;;2.50;1.70;;;;;;;23.88;52.77;101469.06;4962747;28;97252;-44
2023/07/14 08:55:58;;;;;;;2.50;1.90;;;;;;;23.96;52.64;101471.88;4961464;28;97620;-44
2023/07/14 08:58:27;;;;;;;2.20;2.00;;;;;;;24.07;52.16;101466.59;4963436;28;97128;-44
2023/07/14 09:00:55;;;;;;;2.77;1.93;;;;;;;24.19;52.00;101466.94;4963685;28;97220;-44
2023/07/14 09:03:44;;;;;;;1.70;1.60;;;;;;;24.24;50.43;101469.53;4962941;28;97404;-44
2023/07/14 09:06:34;;;;;;;2.13;1.97;;;;;;;24.35;50.14;101465.56;4960557;28;97204;-44
2023/07/14 09:09:00;;;;;;;3.90;1.83;;;;;;;24.47;51.25;101461.72;4960646;28;97173;-44
2023/07/14 09:11:49;;;;;;;1.77;1.50;;;;;;;24.60;49.95;101457.91;4963002;28;97323;-44
2023/07/14 09:14:40;;;;;;;2.20;1.70;;;;;;;24.67;50.46;101459.94;4960849;28;97181;-44
2023/07/14 09:17:31;;;;;;;1.47;1.30;;;;;;;24.83;50.29;101455.75;4961404;28;97142;-44
2023/07/14 09:20:21;;;;;;;2.30;1.57;;;;;;;24.98;50.39;101446.44;4963324;28;96853;-44
2023/07/14 09:23:02;;;;;;;2.07;1.87;;;;;;;25.17;50.40;101441.00;4961671;28;97203;-44
2023/07/14 09:25:49;;;;;;;1.80;1.70;;;;;;;25.33;49.29;101444.44;4961872;28;97018;-44
2023/07/14 09:28:37;;;;;;;2.13;1.93;;;;;;;25.47;47.99;101440.03;4961296;28;97887;-44
2023/07/14 09:31:14;;;;;;;2.17;1.70;;;;;;;25.53;49.26;101438.47;4962247;28;97485;-44
2023/07/14 09:34:00;;;;;;;1.73;1.63;;;;;;;25.44;47.54;101430.66;4963343;28;97287;-45
2023/07/14 09:36:27;;;;;;;1.53;1.43;;;;;;;25.36;49.28;101438.38;4960398;28;97871;-44
2023/07/14 09:39:01;;;;;;;4.30;1.80;;;;;;;25.30;48.68;101441.44;4959064;28;97205;-44
2023/07/14 09:41:30;;;;;;;2.10;1.90;;;;;;;25.32;48.90;101429.59;4962485;28;97353;-44
2023/07/14 09:43:57;;;;;;;3.03;2.00;;;;;;;25.52;48.92;101433.38;4961627;28;97000;-44
2023/07/14 09:46:24;;;;;;;2.03;1.83;;;;;;;25.50;48.31;101424.75;4960118;28;97156;-44
2023/07/14 09:48:52;;;;;;;1.60;1.50;;;;;;;25.43;48.42;101420.69;4963158;28;97313;-44
2023/07/14 09:51:21;;;;;;;3.30;2.10;;;;;;;25.49;48.65;101420.47;4961412;28;97527;-44
2023/07/14 09:54:01;;;;;;;5.20;2.63;;;;;;;25.64;46.91;101409.03;4963599;28;97470;-44
2023/07/14 09:56:31;;;;;;;2.60;2.00;;;;;;;25.71;48.07;101408.94;4961386;28;97640;-44
2023/07/14 09:59:02;;;;;;;1.70;1.60;;;;;;;25.67;47.66;101421.94;4959453;28;97769;-44
2023/07/14 10:01:29;;;;;;;1.70;1.60;;;;;;;25.57;48.25;101419.06;4960008;28;97201;-44
2023/07/14 10:03:58;;;;;;;3.40;1.87;;;;;;;25.54;47.89;101419.44;4962729;28;97213;-44
2023/07/14 10:06:27;;;;;;;2.13;1.67;;;;;;;25.53;47.75;101415.16;4960418;28;98105;-44
2023/07/14 10:09:08;;;;;;;2.57;1.70;;;;;;;25.55;46.23;101404.81;4961108;28;97156;-44
2023/07/14 10:11:46;;;;;;;1.87;1.43;;;;;;;25.68;47.25;101404.47;4962420;28;97646;-44
2023/07/14 10:14:27;;;;;;;1.93;1.80;;;;;;;25.95;46.37;101391.16;4961124;28;97563;-45
2023/07/14 10:16:57;;;;;;;2.00;1.60;;;;;;;26.25;45.81;101397.75;4963297;28;97432;-44
2023/07/14 10:19:34;;;;;;;2.50;1.60;;;;;;;26.32;45.08;101375.06;4961619;28;97229;-44
2023/07/14 10:22:05;;;;;;;1.93;1.73;;;;;;;26.34;45.76;101386.50;4958716;28;97324;-44
2023/07/14 10:24:31;;;;;;;1.50;1.40;;;;;;;26.43;46.03;101377.34;4960946;28;97330;-44
2023/07/14 10:27:11;;;;;;;2.17;1.50;;;;;;;26.41;43.89;101391.31;4961182;28;97242;-45
2023/07/14 10:30:07;;;;;;;3.10;1.50;;;;;;;26.43;43.61;101365.34;4961938;28;98413;-44
2023/07/14 10:32:41;;;;;;;1.83;1.40;;;;;;;26.58;45.13;101365.09;4959067;28;97003;-44
2023/07/14 10:35:39;;;;;;;2.87;1.50;;;;;;;26.82;43.73;101360.59;4958032;28;97170;-44
2023/07/14 10:38:19;;;;;;;3.33;1.90;;;;;;;27.07;44.12;101363.91;4958365;28;98010;-44
2023/07/14 10:40:57;;;;;;;3.03;1.20;;;;;;;27.24;43.51;101361.72;4960165;28;99252;-44
2023/07/14 10:43:34;;;;;;;1.90;1.70;;;;;;;27.39;43.51;101357.91;4959940;28;97617;-45
2023/07/14 10:46:07;;;;;;;1.73;1.60;;;;;;;27.57;44.01;101353.56;4962630;28;96895;-44
2023/07/14 10:48:39;;;;;;;1.90;1.80;;;;;;;27.63;42.82;101348.34;4959692;28;97854;-44
2023/07/14 10:51:26;;;;;;;1.57;1.30;;;;;;;27.72;42.11;101355.38;4958041;28;97062;-44
2023/07/14 10:54:23;;;;;;;1.57;1.47;;;;;;;27.77;41.98;101348.66;4959471;28;97121;-44
2023/07/14 10:56:55;;;;;;;1.47;1.37;;;;;;;27.71;42.77;101340.47;4959915;28;96762;-45
2023/07/14 10:59:44;;;;;;;2.00;1.57;;;;;;;27.53;40.80;101344.81;4960595;28;97988;-44
2023/07/14 11:02:09;;;;;;;2.03;1.47;;;;;;;27.43;42.98;101346.91;4959544;28;96986;-44
2023/07/14 11:04:40;;;;;;;2.30;1.33;;;;;;;27.57;42.21;101342.28;4963163;28;97093;-45
2023/07/14 11:07:08;;;;;;;1.57;1.47;;;;;;;27.63;42.62;101353.28;4961174;28;97512;-44
2023/07/14 11:09:34;;;;;;;1.63;1.37;;;;;;;27.59;42.22;101342.41;4960737;28;99196;-45
2023/07/14 11:12:22;;;;;;;2.10;1.50;;;;;;;27.42;40.30;101339.75;4961982;28;103020;-45
2023/07/14 11:15:10;;;;;;;1.77;1.67;;;;;;;27.34;41.59;101350.44;4964690;28;97148;-44
2023/07/14 11:17:46;;;;;;;2.00;1.67;;;;;;;27.29;41.81;101340.91;4961217;28;97265;-44
2023/07/14 11:20:43;;;;;;;1.93;1.67;;;;;;;27.26;41.67;101336.44;4957982;28;97672;-44
2023/07/14 11:23:45;;;;;;;1.60;1.50;;;;;;;27.23;41.52;101336.88;4961472;28;97853;-44
2023/07/14 11:26:17;;;;;;;2.03;1.90;;;;;;;27.19;42.07;101343.00;4959157;28;97043;-44
2023/07/14 11:28:52;;;;;;;2.40;1.77;;;;;;;27.12;41.63;101343.13;4959348;28;97079;-44
2023/07/14 11:31:17;;;;;;;2.33;1.70;;;;;;;27.13;42.70;101336.16;4961383;28;97240;-44
2023/07/14 11:33:57;;;;;;;1.60;1.50;;;;;;;27.15;42.19;101339.84;4961180;28;97251;-44
2023/07/14 11:36:36;;;;;;;1.60;1.30;;;;;;;27.38;42.38;101319.66;4960748;28;97261;-44